Time;durP1;ratioP1;P1;durP2;ratioP2;P2;SDS_P1;SDS_P2;PMS_P1;PMS_P2;Temp;Humidity;BMP_temperature;BMP_pressure;BME280_temperature;BME280_humidity;BME280_pressure;Samples;Min_cycle;Max_cycle;Signal;HPM_P1;HPM_P2
2022/09/10 00:01:26;;;;;;;0.87;0.40;;;;;;;16.87;74.54;100195.28;5053676;28;20204;-75
2022/09/10 00:03:54;;;;;;;1.17;0.40;;;;;;;16.93;74.78;100190.66;5053695;28;20289;-74
2022/09/10 00:06:24;;;;;;;0.63;0.30;;;;;;;16.96;74.50;100178.13;5053417;28;20302;-74
2022/09/10 00:08:52;;;;;;;1.23;0.50;;;;;;;16.98;74.51;100201.78;5053504;28;20739;-74
2022/09/10 00:11:20;;;;;;;0.53;0.40;;;;;;;16.98;74.47;100205.28;5053470;28;20302;-75
2022/09/10 00:13:48;;;;;;;1.90;0.57;;;;;;;16.95;75.03;100173.81;5053373;28;20706;-74
2022/09/10 00:16:17;;;;;;;0.43;0.40;;;;;;;16.93;74.67;100182.72;5053173;28;20310;-74
2022/09/10 00:18:45;;;;;;;0.60;0.40;;;;;;;16.89;75.52;100153.03;5053304;28;20245;-75
2022/09/10 00:21:13;;;;;;;0.63;0.50;;;;;;;16.79;76.02;100146.47;5053415;28;20233;-75
2022/09/10 00:23:40;;;;;;;0.50;0.37;;;;;;;16.75;75.80;100140.50;5053212;28;20305;-74
2022/09/10 00:26:13;;;;;;;0.50;0.47;;;;;;;16.74;76.31;100128.22;5053024;28;20726;-74
2022/09/10 00:28:41;;;;;;;0.70;0.50;;;;;;;16.72;76.55;100124.81;5053042;28;20689;-74
2022/09/10 00:31:07;;;;;;;1.07;0.47;;;;;;;16.64;77.70;100101.47;5053314;28;20281;-74
2022/09/10 00:33:33;;;;;;;1.23;0.50;;;;;;;16.66;77.38;100088.22;5052858;28;20751;-74
2022/09/10 00:36:00;;;;;;;1.97;0.60;;;;;;;16.63;77.35;100088.38;5053040;28;20204;-75
2022/09/10 00:38:28;;;;;;;2.00;0.40;;;;;;;16.62;77.84;100079.63;5052950;28;20256;-75
2022/09/10 00:41:02;;;;;;;2.43;0.43;;;;;;;16.59;78.09;100056.06;5052917;28;20212;-75
2022/09/10 00:44:01;;;;;;;0.67;0.50;;;;;;;16.57;78.28;100060.56;5053030;28;20216;-75
2022/09/10 00:46:35;;;;;;;0.70;0.50;;;;;;;16.54;78.38;100059.84;5052826;28;20296;-74
2022/09/10 00:49:05;;;;;;;1.93;0.60;;;;;;;16.52;77.97;100062.56;5052566;28;20254;-74
2022/09/10 00:51:34;;;;;;;1.33;0.40;;;;;;;16.46;78.94;100047.91;5052841;28;20226;-75
2022/09/10 00:54:02;;;;;;;1.07;0.63;;;;;;;16.42;79.47;100029.69;5052804;28;20224;-74
2022/09/10 00:56:29;;;;;;;3.00;0.97;;;;;;;16.35;80.32;100012.47;5052634;28;20204;-74
2022/09/10 00:58:56;;;;;;;3.13;0.40;;;;;;;16.30;81.12;99996.91;5052514;28;20302;-74
2022/09/10 01:01:23;;;;;;;1.90;0.40;;;;;;;16.24;81.25;99977.00;5052833;28;20253;-73
2022/09/10 01:03:53;;;;;;;0.30;0.30;;;;;;;16.24;81.52;99961.19;5052318;28;20240;-74
2022/09/10 01:06:19;;;;;;;2.00;0.40;;;;;;;16.21;81.79;99960.50;5052202;28;20209;-74
2022/09/10 01:08:46;;;;;;;3.57;0.57;;;;;;;16.20;82.33;99948.28;5052627;28;20205;-74
2022/09/10 01:11:29;;;;;;;1.03;0.70;;;;;;;16.11;82.78;99939.03;5052326;28;20637;-74
2022/09/10 01:14:17;;;;;;;2.40;0.67;;;;;;;16.12;82.43;99932.00;5052301;28;20729;-74
2022/09/10 01:16:52;;;;;;;0.47;0.40;;;;;;;16.14;82.44;99936.25;5052083;28;20215;-74
2022/09/10 01:19:40;;;;;;;1.53;0.53;;;;;;;16.18;81.80;99969.41;5052268;28;20222;-73
2022/09/10 01:22:17;;;;;;;1.43;0.60;;;;;;;16.18;81.75;99987.84;5032404;28;20253;-74
2022/09/10 01:24:53;;;;;;;0.63;0.40;;;;;;;16.20;81.28;99993.03;5032035;28;20231;-74
2022/09/10 01:27:31;;;;;;;0.60;0.60;;;;;;;16.18;80.34;100016.81;5032469;28;20298;-74
2022/09/10 01:30:03;;;;;;;1.53;0.50;;;;;;;16.23;80.76;100024.47;5032218;28;20311;-74
2022/09/10 01:32:37;;;;;;;1.17;0.70;;;;;;;16.23;80.78;100021.84;5032040;28;20226;-74
2022/09/10 01:35:13;;;;;;;1.07;0.60;;;;;;;16.19;81.07;100036.09;5031934;28;20283;-74
2022/09/10 01:37:43;;;;;;;0.63;0.60;;;;;;;16.05;80.35;100048.16;5032111;28;20211;-74
2022/09/10 01:40:11;;;;;;;2.10;1.03;;;;;;;16.15;80.34;100045.06;5032218;28;20207;-74
2022/09/10 01:42:39;;;;;;;2.43;0.80;;;;;;;16.11;80.43;100057.53;5032093;28;20204;-74
2022/09/10 01:45:07;;;;;;;1.97;0.83;;;;;;;15.96;80.67;100043.31;5031886;28;20230;-74
2022/09/10 01:47:52;;;;;;;2.27;0.73;;;;;;;16.07;81.07;100034.91;5034161;28;20621;-74
2022/09/10 01:50:24;;;;;;;1.03;0.90;;;;;;;16.06;80.64;100044.59;5051601;28;20665;-74
2022/09/10 01:53:06;;;;;;;0.87;0.60;;;;;;;16.14;80.57;100051.28;5051964;28;20208;-74
2022/09/10 01:55:37;;;;;;;0.77;0.50;;;;;;;16.23;80.45;100070.13;5051609;28;20226;-74
2022/09/10 01:58:15;;;;;;;2.70;0.80;;;;;;;16.25;80.62;100065.63;5051770;28;20205;-74
2022/09/10 02:00:48;;;;;;;2.10;0.53;;;;;;;16.32;80.32;100070.59;5051990;28;20542;-74
2022/09/10 02:03:18;;;;;;;1.53;1.03;;;;;;;16.30;80.52;100091.75;5051733;28;20212;-74
2022/09/10 02:05:49;;;;;;;1.80;0.80;;;;;;;16.35;79.44;100091.50;5051662;28;20204;-74
2022/09/10 02:08:20;;;;;;;1.33;0.60;;;;;;;16.35;79.32;100109.94;5051642;28;20640;-73
2022/09/10 02:10:51;;;;;;;1.40;0.70;;;;;;;16.36;80.25;100091.44;5051686;28;20225;-73
2022/09/10 02:13:20;;;;;;;1.47;0.57;;;;;;;16.39;80.34;100093.94;5051620;28;20207;-73
2022/09/10 02:15:48;;;;;;;0.97;0.63;;;;;;;16.39;80.13;100093.06;5053644;28;20212;-74
2022/09/10 02:18:15;;;;;;;0.90;0.50;;;;;;;16.36;80.07;100099.34;5055638;28;20230;-74
2022/09/10 02:20:41;;;;;;;0.77;0.70;;;;;;;16.36;80.22;100087.97;5055499;28;20280;-74
2022/09/10 02:23:11;;;;;;;2.93;0.90;;;;;;;16.33;80.79;100072.28;5054946;28;20204;-74
2022/09/10 02:25:37;;;;;;;0.57;0.57;;;;;;;16.33;80.77;100064.38;5054993;28;20648;-73
2022/09/10 02:28:05;;;;;;;2.23;1.10;;;;;;;16.34;81.06;100055.56;5055367;28;20680;-74
2022/09/10 02:30:32;;;;;;;1.10;0.70;;;;;;;16.25;81.33;100044.56;5055375;28;20744;-74
2022/09/10 02:32:59;;;;;;;0.77;0.50;;;;;;;16.23;82.51;100014.81;5055423;28;20241;-74
2022/09/10 02:35:25;;;;;;;1.70;0.60;;;;;;;16.26;81.83;100019.91;5055067;28;20226;-74
2022/09/10 02:37:52;;;;;;;1.83;0.70;;;;;;;16.30;81.74;100027.69;5055296;28;20281;-74
2022/09/10 02:40:18;;;;;;;2.57;0.70;;;;;;;16.22;82.12;100022.78;5055374;28;20204;-74
2022/09/10 02:42:45;;;;;;;7.70;1.00;;;;;;;16.10;81.98;100032.13;5055410;28;20206;-74
2022/09/10 02:45:12;;;;;;;3.57;0.80;;;;;;;16.14;82.26;100030.22;5054985;28;20295;-74
2022/09/10 02:47:40;;;;;;;1.63;0.90;;;;;;;16.12;82.21;100032.06;5055127;28;20212;-74
2022/09/10 02:50:08;;;;;;;0.60;0.60;;;;;;;16.12;82.45;100032.91;5055050;28;20278;-74
2022/09/10 02:52:34;;;;;;;1.67;0.80;;;;;;;16.08;82.33;100031.34;5054944;28;20280;-74
2022/09/10 02:55:00;;;;;;;2.17;0.70;;;;;;;16.13;82.57;100020.59;5054865;28;20269;-74
2022/09/10 02:57:27;;;;;;;2.37;0.93;;;;;;;16.07;83.06;100011.22;5054972;28;20579;-74
2022/09/10 02:59:55;;;;;;;1.10;0.80;;;;;;;16.05;83.81;99992.00;5055110;28;20200;-74
2022/09/10 03:02:22;;;;;;;2.83;0.70;;;;;;;16.08;83.72;99986.59;5055002;28;20297;-74
2022/09/10 03:04:50;;;;;;;0.97;0.90;;;;;;;16.05;83.99;99982.34;5054396;28;20296;-74
2022/09/10 03:07:19;;;;;;;1.73;0.80;;;;;;;16.03;83.45;99994.69;5054837;28;20209;-73
2022/09/10 03:09:45;;;;;;;1.37;0.80;;;;;;;16.04;83.52;99993.78;5054939;28;20627;-73
2022/09/10 03:12:12;;;;;;;2.37;0.70;;;;;;;16.01;83.27;100008.88;5054620;28;20236;-74
2022/09/10 03:14:38;;;;;;;1.20;0.70;;;;;;;16.00;83.51;100002.75;5054622;28;20243;-74
2022/09/10 03:17:05;;;;;;;0.80;0.67;;;;;;;16.01;82.90;100014.97;5054542;28;20215;-74
2022/09/10 03:19:31;;;;;;;1.00;0.60;;;;;;;15.98;83.00;100028.31;5054308;28;20742;-74
2022/09/10 03:21:59;;;;;;;1.57;0.73;;;;;;;15.96;83.15;100022.28;5054792;28;20254;-74
2022/09/10 03:24:26;;;;;;;1.67;0.73;;;;;;;15.92;82.88;100031.25;5054358;28;20227;-73
2022/09/10 03:26:52;;;;;;;2.20;0.63;;;;;;;15.92;82.80;100036.50;5053055;28;20264;-74
2022/09/10 03:29:19;;;;;;;1.50;0.70;;;;;;;15.93;83.06;100037.34;5054327;28;20211;-73
2022/09/10 03:31:45;;;;;;;2.60;0.77;;;;;;;15.91;83.24;100023.41;5054265;28;20225;-74
2022/09/10 03:34:13;;;;;;;1.23;0.80;;;;;;;15.91;83.74;100019.00;5054073;28;20292;-73
2022/09/10 03:36:39;;;;;;;1.17;0.87;;;;;;;15.94;83.45;100007.47;5054407;28;20211;-74
2022/09/10 03:39:07;;;;;;;1.70;1.30;;;;;;;15.95;83.64;100015.28;5054495;28;20211;-73
2022/09/10 03:41:34;;;;;;;2.73;1.00;;;;;;;16.01;82.99;100035.19;5054123;28;20202;-73
2022/09/10 03:44:01;;;;;;;1.03;0.70;;;;;;;16.00;83.15;100047.53;5054020;28;20228;-74
2022/09/10 03:46:27;;;;;;;1.97;0.83;;;;;;;16.01;83.01;100032.56;5053788;28;20281;-74
2022/09/10 03:48:54;;;;;;;0.97;0.80;;;;;;;15.98;83.00;100038.00;5054179;28;20211;-73
2022/09/10 03:51:20;;;;;;;1.90;0.60;;;;;;;16.01;82.34;100054.47;5054001;28;20234;-74
2022/09/10 03:53:47;;;;;;;0.90;0.90;;;;;;;16.06;82.04;100070.06;5053907;28;20502;-73
2022/09/10 03:56:18;;;;;;;1.23;0.70;;;;;;;16.06;82.31;100067.44;5053478;28;20603;-74
2022/09/10 03:58:45;;;;;;;1.70;1.07;;;;;;;16.04;82.59;100072.78;5054354;28;20506;-73
2022/09/10 04:01:11;;;;;;;2.13;0.70;;;;;;;16.01;83.25;100045.72;5053495;28;20630;-74
2022/09/10 04:03:38;;;;;;;1.43;0.83;;;;;;;16.02;83.63;100026.38;5053801;28;20227;-74
2022/09/10 04:06:04;;;;;;;0.93;0.90;;;;;;;16.01;83.43;100037.84;5053680;28;20256;-74
2022/09/10 04:08:31;;;;;;;1.57;1.00;;;;;;;15.98;84.25;100016.94;5053753;28;20207;-74
2022/09/10 04:11:01;;;;;;;1.30;0.93;;;;;;;15.95;84.71;100001.28;5053557;28;20270;-74
2022/09/10 04:13:30;;;;;;;2.43;1.17;;;;;;;15.92;84.92;99983.84;5053333;28;20549;-74
2022/09/10 04:15:56;;;;;;;1.17;0.90;;;;;;;15.92;85.01;99988.28;5051410;28;20284;-74
2022/09/10 04:18:25;;;;;;;1.37;0.70;;;;;;;15.90;85.35;99975.19;5043618;28;20253;-74
2022/09/10 04:20:52;;;;;;;1.53;0.90;;;;;;;15.92;85.32;99986.50;5052864;28;20213;-74
2022/09/10 04:23:18;;;;;;;1.83;0.80;;;;;;;15.91;85.63;99963.72;5047461;28;20201;-74
2022/09/10 04:25:45;;;;;;;1.50;0.70;;;;;;;15.97;84.94;99984.47;5041935;28;20204;-74
2022/09/10 04:28:12;;;;;;;2.77;0.90;;;;;;;16.01;84.64;99998.34;5043827;28;20273;-74
2022/09/10 04:30:40;;;;;;;1.90;1.40;;;;;;;15.98;84.71;99998.50;5042558;28;20196;-73
2022/09/10 04:33:06;;;;;;;1.40;1.17;;;;;;;15.94;84.16;100013.59;5041613;28;20244;-74
2022/09/10 04:35:33;;;;;;;1.37;0.70;;;;;;;16.00;83.48;100034.34;5041600;28;20273;-74
2022/09/10 04:37:59;;;;;;;2.57;1.00;;;;;;;15.98;84.17;100017.78;5042510;28;20256;-74
2022/09/10 04:40:26;;;;;;;1.97;0.80;;;;;;;15.95;84.46;100020.53;5043591;28;20202;-74
2022/09/10 04:42:52;;;;;;;2.87;0.93;;;;;;;15.94;84.61;100018.00;5043440;28;20196;-74
2022/09/10 04:45:18;;;;;;;1.57;0.90;;;;;;;15.96;84.39;100024.06;5042144;28;20283;-74
2022/09/10 04:47:46;;;;;;;2.00;0.90;;;;;;;15.95;83.40;100051.28;5041514;28;20221;-74
2022/09/10 04:50:14;;;;;;;0.80;0.80;;;;;;;15.97;83.09;100062.59;5047171;28;20389;-74
2022/09/10 04:52:42;;;;;;;3.57;1.00;;;;;;;16.00;83.57;100049.31;5046536;28;20310;-74
2022/09/10 04:55:08;;;;;;;1.77;1.10;;;;;;;15.92;83.74;100057.56;5041305;28;20254;-74
2022/09/10 04:57:35;;;;;;;2.70;1.10;;;;;;;15.98;83.87;100052.00;5043181;28;20196;-73
2022/09/10 05:00:02;;;;;;;2.10;1.10;;;;;;;15.97;84.02;100050.28;5042324;28;20206;-74
2022/09/10 05:02:28;;;;;;;1.27;1.00;;;;;;;16.01;84.17;100051.00;5041320;28;20665;-74
2022/09/10 05:04:56;;;;;;;1.03;1.00;;;;;;;16.00;84.75;100034.34;5043108;28;20218;-74
2022/09/10 05:07:22;;;;;;;1.27;0.70;;;;;;;16.00;83.71;100059.84;5040456;28;20254;-73
2022/09/10 05:09:49;;;;;;;1.83;0.90;;;;;;;16.01;83.26;100072.91;5042779;28;20547;-74
2022/09/10 05:12:15;;;;;;;1.43;0.90;;;;;;;16.05;83.29;100074.50;5040730;28;20230;-74
2022/09/10 05:14:41;;;;;;;1.77;0.90;;;;;;;16.08;83.53;100079.59;5042166;28;20224;-74
2022/09/10 05:17:08;;;;;;;2.73;0.97;;;;;;;16.12;83.50;100071.56;5042176;28;20223;-74
2022/09/10 05:19:34;;;;;;;2.57;0.90;;;;;;;16.11;84.09;100070.69;5044891;28;20733;-74
2022/09/10 05:22:02;;;;;;;1.60;0.80;;;;;;;16.12;84.85;100042.59;5046617;28;20263;-73
2022/09/10 05:24:28;;;;;;;1.47;0.90;;;;;;;16.13;84.14;100049.56;5042577;28;20694;-74
2022/09/10 05:26:55;;;;;;;4.00;1.33;;;;;;;16.18;83.51;100073.91;5040504;28;20199;-74
2022/09/10 05:29:22;;;;;;;2.60;0.90;;;;;;;16.17;84.22;100061.66;5041731;28;20764;-74
2022/09/10 05:31:48;;;;;;;2.13;0.93;;;;;;;16.15;84.15;100063.50;5042294;28;20281;-74
2022/09/10 05:34:15;;;;;;;1.53;0.80;;;;;;;16.16;84.12;100066.06;5043248;28;20762;-74
2022/09/10 05:36:41;;;;;;;1.10;1.00;;;;;;;16.17;84.36;100062.50;5051941;28;20246;-74
2022/09/10 05:39:09;;;;;;;1.57;1.00;;;;;;;16.19;84.00;100067.69;5051879;28;20273;-73
2022/09/10 05:41:36;;;;;;;1.93;1.47;;;;;;;16.23;84.65;100059.59;5048837;28;20200;-73
2022/09/10 05:44:03;;;;;;;1.60;1.20;;;;;;;16.28;84.72;100056.72;5043334;28;20226;-73
2022/09/10 05:46:30;;;;;;;2.43;1.37;;;;;;;16.31;84.28;100059.19;5042419;28;20196;-74
2022/09/10 05:48:56;;;;;;;2.27;0.97;;;;;;;16.36;83.82;100074.78;5043387;28;20218;-74
2022/09/10 05:51:26;;;;;;;3.20;1.60;;;;;;;16.41;83.80;100086.81;5045229;28;20586;-73
2022/09/10 05:53:53;;;;;;;1.47;1.00;;;;;;;16.37;83.40;100084.38;5043317;28;20229;-74
2022/09/10 05:56:20;;;;;;;1.23;0.80;;;;;;;16.44;83.12;100105.09;5041135;28;20204;-74
2022/09/10 05:58:48;;;;;;;0.73;0.60;;;;;;;16.52;82.66;100117.88;5044760;28;20199;-74
2022/09/10 06:01:14;;;;;;;1.40;0.90;;;;;;;16.56;82.30;100129.13;5051780;28;20235;-74
2022/09/10 06:03:41;;;;;;;1.33;0.77;;;;;;;16.61;81.81;100140.28;5051688;28;20714;-73
2022/09/10 06:06:08;;;;;;;1.37;1.03;;;;;;;16.64;81.99;100138.38;5051511;28;20213;-73
2022/09/10 06:08:35;;;;;;;1.50;0.80;;;;;;;16.66;81.73;100148.84;5047656;28;20204;-73
2022/09/10 06:11:04;;;;;;;2.00;0.80;;;;;;;16.55;81.15;100167.81;5051032;28;20604;-72
2022/09/10 06:13:33;;;;;;;1.87;0.80;;;;;;;16.54;81.33;100163.47;5050985;28;20224;-73
2022/09/10 06:16:00;;;;;;;1.83;0.90;;;;;;;16.52;81.87;100154.78;5049899;28;20736;-73
2022/09/10 06:18:27;;;;;;;2.20;1.10;;;;;;;16.57;82.67;100129.06;5050466;28;20213;-74
2022/09/10 06:21:01;;;;;;;2.80;1.10;;;;;;;16.63;82.24;100126.13;5043938;28;20686;-73
2022/09/10 06:23:28;;;;;;;2.20;1.53;;;;;;;16.67;82.33;100117.16;5050407;28;20207;-73
2022/09/10 06:26:03;;;;;;;2.07;0.93;;;;;;;16.62;82.11;100137.59;5051124;28;20622;-73
2022/09/10 06:28:32;;;;;;;1.97;1.23;;;;;;;16.58;82.31;100127.28;5051797;28;20211;-73
2022/09/10 06:30:59;;;;;;;1.37;1.10;;;;;;;16.44;81.82;100141.13;5051298;28;20212;-73
2022/09/10 06:33:26;;;;;;;1.23;1.00;;;;;;;16.40;82.58;100126.41;5051312;28;20273;-73
2022/09/10 06:35:54;;;;;;;1.73;1.30;;;;;;;16.47;82.45;100117.25;5051178;28;20208;-73
2022/09/10 06:38:20;;;;;;;2.70;1.20;;;;;;;16.50;82.40;100116.28;5051553;28;20791;-74
2022/09/10 06:40:53;;;;;;;1.60;1.37;;;;;;;16.38;82.69;100110.66;5051504;28;20203;-73
2022/09/10 06:43:19;;;;;;;2.00;0.80;;;;;;;16.43;82.56;100113.06;5051395;28;20211;-73
2022/09/10 06:45:48;;;;;;;1.67;1.00;;;;;;;16.46;82.21;100123.47;5051240;28;20211;-73
2022/09/10 06:48:17;;;;;;;1.00;0.73;;;;;;;16.51;82.16;100129.38;5051233;28;20210;-74
2022/09/10 06:50:50;;;;;;;2.07;1.37;;;;;;;16.53;82.38;100130.16;5051381;28;20247;-74
2022/09/10 06:53:16;;;;;;;2.63;1.00;;;;;;;16.43;82.31;100127.09;5051096;28;20597;-74
2022/09/10 06:55:43;;;;;;;2.47;0.97;;;;;;;16.36;82.48;100132.75;5051007;28;20204;-74
2022/09/10 06:58:09;;;;;;;2.73;0.90;;;;;;;16.31;83.21;100114.50;5051561;28;20206;-73
2022/09/10 07:00:36;;;;;;;2.87;1.50;;;;;;;16.30;83.01;100106.69;5051305;28;20235;-73
2022/09/10 07:03:04;;;;;;;3.70;1.00;;;;;;;16.35;82.95;100118.72;5054656;28;20246;-73
2022/09/10 07:05:32;;;;;;;1.63;0.97;;;;;;;16.40;83.01;100121.97;5055005;28;20641;-74
2022/09/10 07:07:58;;;;;;;1.30;1.13;;;;;;;16.43;82.55;100137.66;5054911;28;20207;-73
2022/09/10 07:10:26;;;;;;;2.10;1.30;;;;;;;16.48;82.47;100148.81;5054773;28;20264;-73
2022/09/10 07:12:52;;;;;;;2.73;1.30;;;;;;;16.64;82.21;100159.44;5054685;28;20303;-73
2022/09/10 07:15:19;;;;;;;2.47;1.17;;;;;;;16.60;81.40;100175.50;5054038;28;20285;-73
2022/09/10 07:17:45;;;;;;;1.50;0.87;;;;;;;16.68;80.89;100191.78;5054546;28;20216;-73
2022/09/10 07:20:13;;;;;;;1.63;1.10;;;;;;;16.67;80.39;100234.91;5054637;28;20212;-73
2022/09/10 07:22:41;;;;;;;1.27;0.80;;;;;;;16.68;80.82;100226.91;5054534;28;20276;-73
2022/09/10 07:25:08;;;;;;;3.50;1.00;;;;;;;16.71;80.81;100218.00;5054152;28;20755;-73
2022/09/10 07:27:34;;;;;;;0.80;0.80;;;;;;;16.70;80.33;100229.47;5054478;28;20273;-73
2022/09/10 07:30:01;;;;;;;1.00;0.80;;;;;;;16.58;81.15;100217.72;5051169;28;20711;-73
2022/09/10 07:32:28;;;;;;;2.00;0.97;;;;;;;16.60;80.78;100205.34;5043021;28;20218;-73
2022/09/10 07:34:56;;;;;;;1.83;1.00;;;;;;;16.58;80.72;100228.25;5044007;28;20484;-73
2022/09/10 07:37:24;;;;;;;3.37;1.00;;;;;;;16.74;80.53;100236.28;5034591;28;20204;-73
2022/09/10 07:39:51;;;;;;;1.57;0.87;;;;;;;16.88;80.10;100233.88;5034218;28;20209;-73
2022/09/10 07:42:17;;;;;;;1.73;1.10;;;;;;;16.88;78.80;100288.41;5034272;28;20334;-74
2022/09/10 07:44:43;;;;;;;1.33;0.80;;;;;;;16.87;78.17;100324.47;5033844;28;20267;-73
2022/09/10 07:47:10;;;;;;;1.40;0.70;;;;;;;16.98;77.97;100326.56;5034681;28;20210;-73
2022/09/10 07:49:37;;;;;;;1.70;1.10;;;;;;;17.02;77.98;100335.22;5053556;28;20199;-73
2022/09/10 07:52:13;;;;;;;0.60;0.60;;;;;;;17.13;77.53;100346.09;5050785;28;20230;-73
2022/09/10 07:54:41;;;;;;;1.57;0.90;;;;;;;17.10;77.40;100353.31;5052668;28;20210;-74
2022/09/10 07:57:08;;;;;;;3.17;0.80;;;;;;;17.09;76.75;100380.63;5053215;28;20250;-74
2022/09/10 07:59:34;;;;;;;1.70;0.77;;;;;;;17.18;77.35;100372.25;5053014;28;20733;-74
2022/09/10 08:02:01;;;;;;;1.30;0.90;;;;;;;17.18;76.82;100386.28;5051825;28;20208;-73
2022/09/10 08:04:30;;;;;;;1.60;1.03;;;;;;;17.34;76.76;100382.94;5051717;28;20717;-73
2022/09/10 08:06:57;;;;;;;2.50;0.73;;;;;;;17.42;76.33;100386.06;5051630;28;20615;-73
2022/09/10 08:09:24;;;;;;;1.40;1.00;;;;;;;17.31;76.83;100391.00;5051722;28;20246;-73
2022/09/10 08:11:52;;;;;;;1.93;0.70;;;;;;;17.40;75.89;100404.63;5051319;28;20722;-73
2022/09/10 08:14:19;;;;;;;1.20;0.80;;;;;;;17.32;75.48;100429.63;5051001;28;20298;-73
2022/09/10 08:16:45;;;;;;;1.90;0.93;;;;;;;17.35;75.88;100417.16;5053172;28;20205;-74
2022/09/10 08:19:13;;;;;;;2.50;0.90;;;;;;;17.45;75.96;100405.25;5053515;28;20212;-73
2022/09/10 08:21:40;;;;;;;1.70;0.80;;;;;;;17.45;74.68;100447.47;5053067;28;20686;-73
2022/09/10 08:24:07;;;;;;;1.80;0.80;;;;;;;17.54;74.58;100453.22;5053120;28;20225;-74
2022/09/10 08:26:34;;;;;;;1.73;1.00;;;;;;;17.63;74.95;100445.72;5052942;28;20205;-73
2022/09/10 08:29:02;;;;;;;2.03;0.80;;;;;;;17.77;75.29;100431.84;5053379;28;20216;-74
2022/09/10 08:31:29;;;;;;;2.30;0.80;;;;;;;17.88;75.30;100428.75;5053387;28;20212;-73
2022/09/10 08:33:56;;;;;;;1.07;0.73;;;;;;;17.96;74.05;100460.91;5053125;28;20237;-73
2022/09/10 08:36:24;;;;;;;1.60;0.77;;;;;;;17.85;73.31;100495.75;5052971;28;20211;-73
2022/09/10 08:38:51;;;;;;;1.30;0.70;;;;;;;17.83;73.95;100489.69;5052882;28;20254;-73
2022/09/10 08:41:28;;;;;;;2.30;1.20;;;;;;;17.94;73.64;100496.22;5053181;28;20214;-74
2022/09/10 08:43:58;;;;;;;0.60;0.60;;;;;;;17.78;73.80;100494.31;5053122;28;20220;-74
2022/09/10 08:46:30;;;;;;;1.77;1.00;;;;;;;17.83;73.46;100507.28;5053119;28;20213;-74
2022/09/10 08:49:07;;;;;;;0.67;0.67;;;;;;;17.74;74.09;100500.66;5052892;28;20217;-74
2022/09/10 08:51:41;;;;;;;1.60;0.90;;;;;;;17.85;74.59;100468.47;5052606;28;20234;-74
2022/09/10 08:54:13;;;;;;;0.90;0.60;;;;;;;17.86;74.00;100473.69;5052605;28;20224;-74
2022/09/10 08:56:41;;;;;;;2.33;0.90;;;;;;;17.81;72.93;100498.59;5052602;28;20216;-74
2022/09/10 08:59:17;;;;;;;0.93;0.60;;;;;;;17.83;73.35;100496.72;5052678;28;20222;-74
2022/09/10 09:01:50;;;;;;;1.30;0.77;;;;;;;17.95;74.62;100468.88;5052647;28;20692;-74
2022/09/10 09:04:28;;;;;;;1.13;0.60;;;;;;;18.01;74.05;100458.88;5052514;28;20227;-74
2022/09/10 09:06:59;;;;;;;1.77;0.90;;;;;;;18.17;74.32;100452.81;5052563;28;20212;-74
2022/09/10 09:09:26;;;;;;;1.50;0.70;;;;;;;17.96;73.75;100489.94;5052511;28;20678;-74
2022/09/10 09:12:02;;;;;;;1.47;0.80;;;;;;;18.02;73.76;100467.66;5052544;28;20220;-74
2022/09/10 09:14:47;;;;;;;1.37;1.00;;;;;;;18.12;73.94;100473.34;5052095;28;20236;-73
2022/09/10 09:17:32;;;;;;;0.97;0.70;;;;;;;18.24;73.78;100475.38;5053081;28;20294;-74
2022/09/10 09:20:10;;;;;;;0.83;0.80;;;;;;;18.30;72.11;100516.50;5054129;28;20254;-79
2022/09/10 09:22:43;;;;;;;2.40;0.90;;;;;;;18.52;72.41;100525.03;5053597;28;20581;-78
2022/09/10 09:25:20;;;;;;;0.87;0.57;;;;;;;18.54;71.33;100564.63;5053736;28;20258;-78
2022/09/10 09:27:48;;;;;;;1.10;0.60;;;;;;;18.65;71.15;100575.50;5052515;28;20219;-78
2022/09/10 09:30:17;;;;;;;0.50;0.50;;;;;;;18.73;73.13;100498.44;5052209;28;20209;-78
2022/09/10 09:32:47;;;;;;;1.17;0.67;;;;;;;18.66;70.99;100556.91;5052161;28;20208;-78
2022/09/10 09:35:25;;;;;;;1.07;0.50;;;;;;;18.57;70.17;100583.84;5051796;28;20321;-78
2022/09/10 09:38:03;;;;;;;1.07;0.60;;;;;;;18.68;72.09;100540.13;5052240;28;20266;-78
2022/09/10 09:40:36;;;;;;;0.90;0.70;;;;;;;18.55;70.56;100583.06;5052157;28;20594;-78
2022/09/10 09:43:09;;;;;;;1.80;0.60;;;;;;;18.79;70.87;100556.28;5051954;28;20227;-77
2022/09/10 09:45:38;;;;;;;1.40;1.30;;;;;;;18.84;70.76;100554.31;5051518;28;20226;-78
2022/09/10 09:48:08;;;;;;;1.63;0.67;;;;;;;18.97;70.26;100565.97;5051481;28;20205;-78
2022/09/10 09:50:40;;;;;;;0.70;0.60;;;;;;;18.70;69.26;100596.44;5051917;28;20206;-77
2022/09/10 09:53:09;;;;;;;2.53;1.07;;;;;;;18.52;70.09;100579.72;5051905;28;20247;-77
2022/09/10 09:55:40;;;;;;;1.43;0.73;;;;;;;18.68;71.04;100559.50;5051814;28;20278;-77
2022/09/10 09:58:33;;;;;;;2.20;0.73;;;;;;;18.84;71.76;100506.69;5051753;28;20209;-78
2022/09/10 10:01:11;;;;;;;1.70;0.70;;;;;;;18.94;71.62;100489.41;5052239;28;20212;-78
2022/09/10 10:03:48;;;;;;;2.07;0.53;;;;;;;18.95;71.46;100512.28;5051765;28;20728;-78
2022/09/10 10:06:15;;;;;;;1.07;0.67;;;;;;;18.97;70.53;100517.50;5051502;28;20218;-77
2022/09/10 10:08:46;;;;;;;0.70;0.70;;;;;;;19.19;70.87;100531.28;5052168;28;20258;-78
2022/09/10 10:11:14;;;;;;;1.47;0.60;;;;;;;19.21;70.30;100544.47;5052220;28;20201;-78
2022/09/10 10:13:42;;;;;;;1.57;0.60;;;;;;;19.33;70.10;100554.38;5051614;28;20227;-78
2022/09/10 10:16:17;;;;;;;0.97;0.60;;;;;;;19.19;69.57;100586.03;5051767;28;20197;-77
2022/09/10 10:18:45;;;;;;;1.00;0.83;;;;;;;19.31;69.72;100568.66;5051603;28;20298;-78
2022/09/10 10:21:15;;;;;;;0.70;0.40;;;;;;;19.27;68.55;100585.63;5050576;28;20205;-77
2022/09/10 10:23:41;;;;;;;1.17;0.50;;;;;;;19.34;69.36;100590.47;5051655;28;20283;-78
2022/09/10 10:26:29;;;;;;;1.13;0.43;;;;;;;19.28;68.63;100584.69;5051537;28;20224;-77
2022/09/10 10:28:59;;;;;;;0.40;0.40;;;;;;;19.32;68.73;100600.31;5051693;28;20245;-77
2022/09/10 10:31:35;;;;;;;4.00;0.50;;;;;;;19.13;70.08;100557.25;5051417;28;20704;-77
2022/09/10 10:34:23;;;;;;;0.97;0.70;;;;;;;19.35;71.40;100514.59;5051682;28;20231;-76
2022/09/10 10:37:01;;;;;;;0.40;0.40;;;;;;;19.45;71.65;100474.28;5055294;28;20248;-77
2022/09/10 10:39:44;;;;;;;1.60;0.50;;;;;;;19.52;71.72;100464.19;5055494;28;20262;-77
2022/09/10 10:42:20;;;;;;;0.73;0.70;;;;;;;19.55;71.49;100479.09;5055251;28;20216;-78
2022/09/10 10:44:59;;;;;;;1.30;0.77;;;;;;;19.33;70.73;100498.78;5055278;28;20227;-77
2022/09/10 10:47:38;;;;;;;0.60;0.47;;;;;;;19.48;71.57;100481.19;5055431;28;20270;-77
2022/09/10 10:50:20;;;;;;;1.00;0.47;;;;;;;19.41;69.22;100551.31;5055741;28;20255;-78
2022/09/10 10:52:58;;;;;;;0.83;0.50;;;;;;;19.62;69.55;100547.50;5055062;28;20666;-77
2022/09/10 10:55:30;;;;;;;0.73;0.70;;;;;;;19.74;68.51;100588.41;5054950;28;20278;-76
2022/09/10 10:58:19;;;;;;;0.70;0.70;;;;;;;19.68;67.20;100631.03;5055347;28;20213;-76
2022/09/10 11:00:52;;;;;;;0.73;0.73;;;;;;;19.70;66.93;100663.63;5054763;28;20552;-76
2022/09/10 11:03:23;;;;;;;0.80;0.80;;;;;;;19.91;66.34;100688.13;5055106;28;20570;-76
2022/09/10 11:05:55;;;;;;;0.70;0.70;;;;;;;19.93;66.65;100683.59;5054991;28;20250;-77
2022/09/10 11:08:30;;;;;;;0.90;0.60;;;;;;;19.68;64.92;100699.91;5054893;28;20657;-77
2022/09/10 11:11:02;;;;;;;0.70;0.70;;;;;;;19.47;66.57;100685.16;5054959;28;20205;-76
2022/09/10 11:13:34;;;;;;;0.93;0.70;;;;;;;19.59;67.87;100621.81;5054784;28;20270;-77
2022/09/10 11:16:05;;;;;;;0.87;0.80;;;;;;;19.64;66.76;100605.66;5054927;28;20631;-77
2022/09/10 11:18:36;;;;;;;0.80;0.80;;;;;;;19.79;66.79;100626.06;5054750;28;20217;-76
2022/09/10 11:21:11;;;;;;;0.70;0.70;;;;;;;20.00;66.42;100623.19;5054719;28;20201;-76
2022/09/10 11:23:45;;;;;;;0.73;0.73;;;;;;;19.89;65.55;100646.78;5054067;28;20286;-76
2022/09/10 11:26:17;;;;;;;0.87;0.87;;;;;;;19.71;65.86;100659.19;5054419;28;20633;-76
2022/09/10 11:28:54;;;;;;;1.20;0.80;;;;;;;19.86;66.17;100613.34;5054267;28;20747;-77
2022/09/10 11:31:30;;;;;;;1.00;1.00;;;;;;;20.07;66.48;100623.69;5054361;28;20593;-77
2022/09/10 11:34:03;;;;;;;1.20;1.10;;;;;;;20.27;66.60;100590.75;5054142;28;20293;-77
2022/09/10 11:36:39;;;;;;;1.33;1.27;;;;;;;20.39;64.33;100677.56;5054399;28;20264;-76
2022/09/10 11:39:15;;;;;;;1.30;1.20;;;;;;;20.30;63.34;100750.53;5054396;28;20258;-77